createdAt,value
2022-09-09T00:08:32.036Z,9.77
2022-09-09T00:19:06.437Z,10.15
2022-09-09T00:29:43.787Z,9.45
2022-09-09T00:40:20.396Z,10.85
2022-09-09T00:50:44.931Z,11.00
2022-09-09T01:01:11.112Z,11.18
2022-09-09T01:11:54.270Z,11.30
2022-09-09T01:22:51.407Z,10.80
2022-09-09T01:33:16.633Z,11.18
2022-09-09T01:43:38.380Z,11.93
2022-09-09T01:54:00.050Z,10.45
2022-09-09T02:04:41.903Z,11.50
2022-09-09T02:15:17.353Z,11.25
2022-09-09T02:25:41.567Z,10.60
2022-09-09T02:36:07.676Z,10.77
2022-09-09T02:46:56.478Z,9.93
2022-09-09T02:57:28.827Z,9.52
2022-09-09T03:07:51.493Z,9.48
2022-09-09T03:18:12.962Z,9.70
2022-09-09T03:38:56.559Z,7.80
2022-09-09T03:49:18.007Z,7.72
2022-09-09T04:10:00.931Z,8.03
2022-09-09T04:30:45.103Z,6.07
2022-09-09T04:41:07.110Z,5.78
2022-09-09T04:51:29.250Z,5.75
2022-09-09T05:01:51.327Z,7.25
2022-09-09T05:12:12.819Z,6.03
2022-09-09T05:32:59.377Z,5.43
2022-09-09T05:43:21.413Z,5.18
2022-09-09T05:53:43.813Z,6.85
2022-09-09T06:04:05.337Z,4.82
2022-09-09T06:24:49.410Z,5.10
2022-09-09T06:45:33.351Z,5.30
2022-09-09T06:55:55.715Z,5.15
2022-09-09T07:06:20.532Z,5.28
2022-09-09T07:16:46.466Z,4.93
2022-09-09T07:27:07.935Z,4.57
2022-09-09T07:47:50.857Z,5.47
2022-09-09T07:58:12.297Z,5.72
2022-09-09T08:08:34.869Z,5.47
2022-09-09T08:18:56.354Z,5.70
2022-09-09T08:29:18.345Z,4.88
2022-09-09T08:39:39.842Z,4.22
2022-09-09T08:50:16.557Z,4.07
2022-09-09T09:00:48.090Z,3.47
2022-09-09T09:11:09.622Z,3.15
2022-09-09T09:21:45.905Z,3.20
2022-09-09T09:32:15.054Z,2.90
2022-09-09T09:42:36.694Z,3.00
2022-09-09T09:53:03.719Z,2.67
2022-09-09T10:03:31.528Z,2.45
2022-09-09T10:14:18.413Z,2.47
2022-09-09T10:25:12.031Z,2.17
2022-09-09T10:35:43.353Z,1.92
2022-09-09T10:46:20.486Z,2.10
2022-09-09T10:56:46.438Z,1.70
2022-09-09T11:07:12.369Z,1.67
2022-09-09T11:17:57.655Z,1.95
2022-09-09T11:28:45.592Z,2.65
2022-09-09T11:39:12.946Z,2.17
2022-09-09T11:49:44.120Z,2.10
2022-09-09T12:00:07.096Z,3.85
2022-09-09T12:10:33.564Z,5.38
2022-09-09T12:21:08.735Z,4.50
2022-09-09T12:31:45.133Z,3.90
2022-09-09T12:42:20.369Z,3.88
2022-09-09T12:52:42.001Z,4.63
2022-09-09T13:03:17.855Z,4.05
2022-09-09T13:13:41.656Z,3.15
2022-09-09T13:24:04.344Z,3.90
2022-09-09T13:34:35.063Z,4.25
2022-09-09T13:44:58.952Z,4.00
2022-09-09T13:55:24.953Z,3.33
2022-09-09T14:05:46.751Z,2.40
2022-09-09T14:16:08.312Z,1.70
2022-09-09T14:26:30.884Z,2.05
2022-09-09T14:36:52.461Z,2.00
2022-09-09T14:47:13.925Z,1.92
2022-09-09T14:57:36.703Z,2.00
2022-09-09T15:07:59.551Z,2.20
2022-09-09T15:18:22.208Z,1.90
2022-09-09T15:28:45.470Z,1.50
2022-09-09T15:39:10.843Z,1.35
2022-09-09T15:49:32.314Z,1.52
2022-09-09T15:59:53.771Z,2.17
2022-09-09T16:10:15.313Z,1.63
2022-09-09T16:20:36.777Z,1.23
2022-09-09T16:30:59.335Z,1.50
2022-09-09T16:41:21.073Z,2.15
2022-09-09T16:51:48.411Z,1.80
2022-09-09T17:02:09.991Z,1.80
2022-09-09T17:12:31.611Z,2.65
2022-09-09T17:22:53.075Z,2.65
2022-09-09T17:33:14.509Z,2.13
2022-09-09T17:43:39.287Z,2.33
2022-09-09T17:54:11.090Z,2.00
2022-09-09T18:04:32.606Z,2.42
2022-09-09T18:14:54.180Z,2.10
2022-09-09T18:25:15.760Z,2.10
2022-09-09T18:35:37.540Z,1.95
2022-09-09T18:46:04.480Z,2.20
2022-09-09T18:56:26.505Z,1.90
2022-09-09T19:06:49.329Z,1.95
2022-09-09T19:17:10.825Z,2.20
2022-09-09T19:27:32.664Z,2.45
2022-09-09T19:37:54.600Z,2.40
2022-09-09T19:48:16.859Z,2.38
2022-09-09T19:58:40.379Z,2.28
2022-09-09T20:09:02.906Z,2.30
2022-09-09T20:19:24.390Z,1.98
2022-09-09T20:29:47.134Z,2.22
2022-09-09T20:40:08.996Z,2.40
2022-09-09T20:50:31.526Z,2.78
2022-09-09T21:00:53.618Z,3.17
2022-09-09T21:11:17.145Z,3.55
2022-09-09T21:21:39.199Z,3.60
2022-09-09T21:32:03.277Z,3.60
2022-09-09T21:42:24.742Z,3.88
2022-09-09T21:52:46.217Z,3.22
2022-09-09T22:03:08.536Z,3.95
2022-09-09T22:13:30.045Z,3.85
2022-09-09T22:23:56.893Z,3.45
2022-09-09T22:34:19.304Z,3.17
2022-09-09T22:44:41.722Z,2.63
2022-09-09T22:55:03.696Z,2.50
2022-09-09T23:05:27.454Z,2.70
2022-09-09T23:15:49.697Z,2.60
2022-09-09T23:26:13.688Z,2.53
2022-09-09T23:36:35.258Z,2.40
2022-09-09T23:46:56.724Z,2.45
2022-09-09T23:57:18.556Z,2.53
